Time;durP1;ratioP1;P1;durP2;ratioP2;P2;SDS_P1;SDS_P2;PMS_P1;PMS_P2;Temp;Humidity;BMP_temperature;BMP_pressure;BME280_temperature;BME280_humidity;BME280_pressure;Samples;Min_cycle;Max_cycle;Signal;HPM_P1;HPM_P2
2023/05/19 00:01:17;;;;;;;11.45;5.13;;;;;;;6.48;100.00;102906.03;5136103;27;20047;-75
2023/05/19 00:03:51;;;;;;;11.75;5.47;;;;;;;6.48;100.00;102901.59;5134720;27;20058;-74
2023/05/19 00:06:21;;;;;;;11.52;4.40;;;;;;;6.44;100.00;102901.78;5135927;27;20031;-77
2023/05/19 00:08:48;;;;;;;9.80;5.07;;;;;;;6.38;100.00;102897.59;5135694;27;20058;-75
2023/05/19 00:11:13;;;;;;;9.10;4.47;;;;;;;6.32;100.00;102893.38;5135904;27;20031;-75
2023/05/19 00:13:39;;;;;;;12.82;4.68;;;;;;;6.28;100.00;102898.88;5117026;27;20055;-75
2023/05/19 00:16:05;;;;;;;12.77;4.95;;;;;;;6.23;100.00;102892.91;5134924;27;20062;-75
2023/05/19 00:18:31;;;;;;;11.88;5.00;;;;;;;6.18;100.00;102893.09;5134259;27;20069;-74
2023/05/19 00:20:56;;;;;;;12.27;4.97;;;;;;;6.14;100.00;102888.84;5135103;27;20042;-76
2023/05/19 00:23:21;;;;;;;9.52;4.75;;;;;;;6.11;100.00;102889.81;5133882;27;20042;-76
2023/05/19 00:25:47;;;;;;;13.98;5.13;;;;;;;6.07;100.00;102892.63;5134294;27;20058;-76
2023/05/19 00:28:12;;;;;;;8.93;4.85;;;;;;;6.02;100.00;102891.94;5135958;27;20030;-76
2023/05/19 00:30:37;;;;;;;10.68;4.20;;;;;;;5.95;100.00;102892.16;5135166;27;20026;-75
2023/05/19 00:33:03;;;;;;;10.82;5.78;;;;;;;5.95;100.00;102900.06;5135575;27;20046;-76
2023/05/19 00:35:28;;;;;;;12.73;4.70;;;;;;;5.91;100.00;102901.13;5135057;27;20035;-76
2023/05/19 00:37:54;;;;;;;10.88;5.20;;;;;;;5.88;100.00;102897.72;5135311;27;20030;-75
2023/05/19 00:40:20;;;;;;;14.90;4.82;;;;;;;5.83;100.00;102900.53;5135380;27;20028;-75
2023/05/19 00:42:45;;;;;;;11.38;5.07;;;;;;;5.83;100.00;102897.91;5135001;27;20088;-75
2023/05/19 00:45:11;;;;;;;13.13;5.18;;;;;;;5.83;100.00;102897.91;5134920;27;20118;-75
2023/05/19 00:47:36;;;;;;;10.85;4.55;;;;;;;5.80;100.00;102901.50;5168538;27;20054;-75
2023/05/19 00:50:02;;;;;;;12.48;4.60;;;;;;;5.81;100.00;102894.47;5135161;27;20031;-76
2023/05/19 00:52:27;;;;;;;16.95;5.07;;;;;;;5.81;100.00;102892.69;5134851;27;20504;-75
2023/05/19 00:54:54;;;;;;;10.07;4.82;;;;;;;5.81;100.00;102890.03;5135454;27;20042;-75
2023/05/19 00:57:20;;;;;;;10.57;4.50;;;;;;;5.85;100.00;102889.91;5134668;27;20091;-75
2023/05/19 01:09:51;;;;;;;9.95;4.25;;;;;;;5.65;100.00;102886.25;5337248;22;21075;-75
2023/05/19 01:12:16;;;;;;;10.73;4.45;;;;;;;5.60;100.00;102889.06;5030244;28;20053;-75
2023/05/19 01:14:43;;;;;;;11.32;4.45;;;;;;;5.55;100.00;102885.72;5031883;28;20069;-75
2023/05/19 01:17:37;;;;;;;10.38;4.38;;;;;;;5.51;100.00;102881.50;5031539;28;20037;-75
2023/05/19 01:20:11;;;;;;;17.10;5.22;;;;;;;5.46;100.00;102875.50;5032139;28;20091;-76
2023/05/19 01:22:57;;;;;;;9.48;4.70;;;;;;;5.40;100.00;102871.28;5032588;28;20029;-76
2023/05/19 01:26:01;;;;;;;10.45;4.55;;;;;;;5.35;100.00;102875.88;5032474;28;20048;-75
2023/05/19 01:28:35;;;;;;;9.93;4.93;;;;;;;5.32;100.00;102875.16;5032449;28;20029;-75
2023/05/19 01:31:01;;;;;;;9.32;4.50;;;;;;;5.26;100.00;102871.81;5048109;28;20037;-76
2023/05/19 01:33:29;;;;;;;8.30;4.63;;;;;;;5.21;100.00;102873.75;5032070;28;20060;-75
2023/05/19 01:35:56;;;;;;;14.80;5.18;;;;;;;5.21;100.00;102871.13;5032439;28;20096;-76
2023/05/19 01:38:23;;;;;;;10.75;5.15;;;;;;;5.22;100.00;102874.59;5032303;28;20068;-76
2023/05/19 01:40:51;;;;;;;11.43;5.32;;;;;;;5.20;100.00;102873.81;5048010;28;20121;-76
2023/05/19 01:43:20;;;;;;;10.52;5.35;;;;;;;5.17;100.00;102874.78;5032052;28;20120;-77
2023/05/19 01:45:45;;;;;;;19.52;5.45;;;;;;;5.15;100.00;102878.38;5047861;28;20389;-77
2023/05/19 01:48:12;;;;;;;10.18;5.38;;;;;;;5.15;100.00;102884.53;5047538;28;20029;-76
2023/05/19 01:50:38;;;;;;;12.48;5.25;;;;;;;5.14;100.00;102874.03;5047877;28;20029;-76
2023/05/19 01:53:04;;;;;;;15.90;5.28;;;;;;;5.09;100.00;102875.03;5032104;28;20025;-76
2023/05/19 01:55:30;;;;;;;12.68;5.45;;;;;;;5.08;100.00;102868.03;5032037;28;20021;-76
2023/05/19 01:58:10;;;;;;;11.50;5.05;;;;;;;5.03;100.00;102866.47;5032169;28;20194;-76
2023/05/19 02:00:41;;;;;;;9.75;5.07;;;;;;;5.02;100.00;102867.41;5032494;28;20036;-75
2023/05/19 02:03:07;;;;;;;10.85;5.28;;;;;;;5.01;100.00;102863.03;5031827;28;20087;-77
2023/05/19 02:05:39;;;;;;;10.32;5.18;;;;;;;5.01;100.00;102860.38;5032135;28;20436;-76
2023/05/19 02:08:13;;;;;;;17.00;5.25;;;;;;;4.97;100.00;102864.03;5031856;28;20172;-75
2023/05/19 02:10:42;;;;;;;12.50;5.40;;;;;;;4.94;100.00;102870.28;5031688;28;20137;-75
2023/05/19 02:13:12;;;;;;;11.95;5.55;;;;;;;4.92;100.00;102859.78;5031618;28;20048;-75
2023/05/19 02:15:43;;;;;;;14.07;5.40;;;;;;;4.91;100.00;102868.63;5032087;28;20062;-75
2023/05/19 02:18:11;;;;;;;9.82;5.10;;;;;;;4.90;100.00;102866.91;5034461;28;20033;-76
2023/05/19 02:20:38;;;;;;;15.75;4.97;;;;;;;4.88;100.00;102863.47;5036102;28;20040;-77
2023/05/19 02:23:04;;;;;;;15.77;5.80;;;;;;;4.90;100.00;102853.72;5035849;28;20031;-76
2023/05/19 02:25:29;;;;;;;14.15;5.90;;;;;;;4.89;100.00;102859.03;5035574;28;20037;-75
2023/05/19 02:27:55;;;;;;;12.98;5.53;;;;;;;4.88;100.00;102860.81;5036057;28;20033;-76
2023/05/19 02:30:20;;;;;;;9.88;5.30;;;;;;;4.87;100.00;102861.72;5035531;28;20099;-76
2023/05/19 02:32:45;;;;;;;13.82;5.45;;;;;;;4.87;100.00;102860.88;5035971;28;20034;-75
2023/05/19 02:35:11;;;;;;;14.52;5.28;;;;;;;4.85;100.00;102857.41;5035733;28;20044;-75
2023/05/19 02:37:37;;;;;;;9.40;5.25;;;;;;;4.84;100.00;102858.34;5036167;28;20033;-75
2023/05/19 02:40:03;;;;;;;12.57;5.63;;;;;;;4.83;100.00;102860.09;5036160;28;20377;-76
2023/05/19 02:42:28;;;;;;;14.00;5.82;;;;;;;4.93;100.00;102852.75;5035293;28;20029;-75
2023/05/19 02:44:54;;;;;;;12.85;6.35;;;;;;;4.90;100.00;102858.13;5035614;28;20087;-76
2023/05/19 02:47:19;;;;;;;11.70;5.57;;;;;;;4.91;100.00;102851.91;5035260;28;20059;-76
2023/05/19 02:49:45;;;;;;;11.57;5.25;;;;;;;4.91;100.00;102844.88;5035332;28;20060;-77
2023/05/19 02:52:11;;;;;;;12.63;5.53;;;;;;;4.89;100.00;102844.06;5034282;28;20041;-76
2023/05/19 02:54:36;;;;;;;16.85;5.68;;;;;;;4.88;100.00;102844.13;5035153;28;20132;-75
2023/05/19 02:57:01;;;;;;;12.32;6.20;;;;;;;4.90;100.00;102842.31;5035432;28;20442;-76
2023/05/19 02:59:27;;;;;;;14.13;5.70;;;;;;;4.88;100.00;102838.84;5034373;28;20056;-76
2023/05/19 03:02:00;;;;;;;15.02;5.82;;;;;;;4.82;100.00;102842.56;5035038;28;20037;-77
2023/05/19 03:04:26;;;;;;;16.10;6.00;;;;;;;4.80;100.00;102843.53;5035093;28;20099;-76
2023/05/19 03:06:52;;;;;;;10.98;5.15;;;;;;;4.76;100.00;102843.63;5035216;28;20061;-76
2023/05/19 03:09:18;;;;;;;13.13;5.85;;;;;;;4.72;100.00;102835.88;5034649;28;20466;-76
2023/05/19 03:11:45;;;;;;;13.43;5.85;;;;;;;4.71;100.00;102840.28;5034628;28;20187;-77
2023/05/19 03:14:13;;;;;;;15.90;6.40;;;;;;;4.71;100.00;102842.91;5035359;28;20133;-75
2023/05/19 03:16:40;;;;;;;11.57;5.63;;;;;;;4.69;100.00;102841.25;5034581;28;20442;-76
2023/05/19 03:19:06;;;;;;;10.38;5.50;;;;;;;4.69;100.00;102838.63;5034773;28;20080;-76
2023/05/19 03:21:33;;;;;;;26.38;6.90;;;;;;;4.72;100.00;102836.75;5034353;28;20033;-76
2023/05/19 03:23:58;;;;;;;15.10;5.65;;;;;;;4.71;100.00;102842.91;5034980;28;20042;-76
2023/05/19 03:26:24;;;;;;;19.33;6.18;;;;;;;4.70;100.00;102828.03;5034526;28;20034;-76
2023/05/19 03:28:49;;;;;;;10.77;5.60;;;;;;;4.71;100.00;102840.28;5033713;28;20132;-76
2023/05/19 03:31:15;;;;;;;11.60;5.32;;;;;;;4.69;100.00;102834.22;5034402;28;20037;-76
2023/05/19 03:33:40;;;;;;;18.25;5.90;;;;;;;4.68;100.00;102827.19;5034087;28;20033;-75
2023/05/19 03:36:06;;;;;;;7.60;5.20;;;;;;;4.66;100.00;102830.78;5034343;28;20110;-77
2023/05/19 03:38:31;;;;;;;9.80;5.15;;;;;;;4.64;100.00;102828.22;5034366;28;20104;-76
2023/05/19 03:40:56;;;;;;;12.02;5.80;;;;;;;4.62;100.00;102827.41;5034717;28;20030;-77
2023/05/19 03:43:22;;;;;;;9.95;5.72;;;;;;;4.61;100.00;102827.47;5034135;28;20125;-75
2023/05/19 03:45:47;;;;;;;19.67;6.53;;;;;;;4.58;100.00;102831.06;5034046;28;20520;-76
2023/05/19 03:48:14;;;;;;;11.15;5.32;;;;;;;4.56;100.00;102831.09;5034286;28;20060;-76
2023/05/19 03:50:40;;;;;;;18.75;6.22;;;;;;;4.58;100.00;102836.31;5034063;28;20069;-76
2023/05/19 03:53:05;;;;;;;14.38;6.03;;;;;;;4.59;100.00;102835.44;5034375;28;20065;-76
2023/05/19 03:55:31;;;;;;;12.30;6.70;;;;;;;4.61;100.00;102835.38;5032401;28;20033;-77
2023/05/19 03:57:56;;;;;;;15.68;6.22;;;;;;;4.65;100.00;102829.94;5032703;28;20033;-78
2023/05/19 04:00:21;;;;;;;10.05;5.80;;;;;;;4.68;100.00;102834.25;5033552;28;20036;-75
2023/05/19 04:02:47;;;;;;;16.85;5.97;;;;;;;4.68;100.00;102831.63;5033794;28;20030;-78
2023/05/19 04:05:13;;;;;;;13.40;6.30;;;;;;;4.69;100.00;102828.09;5033796;28;20029;-77
2023/05/19 04:07:38;;;;;;;16.85;6.00;;;;;;;4.68;100.00;102831.63;5033455;28;20037;-76
2023/05/19 04:10:04;;;;;;;14.65;5.97;;;;;;;4.67;100.00;102832.53;5033733;28;20465;-77
2023/05/19 04:12:29;;;;;;;12.68;5.93;;;;;;;4.66;100.00;102836.06;5032676;28;20136;-75
2023/05/19 04:14:55;;;;;;;11.55;5.60;;;;;;;4.63;100.00;102837.06;5033408;28;20200;-75
2023/05/19 04:17:22;;;;;;;14.50;6.35;;;;;;;4.61;100.00;102836.22;5033354;28;20040;-77
2023/05/19 04:19:47;;;;;;;16.90;6.38;;;;;;;4.60;100.00;102837.16;5033849;28;20038;-75
2023/05/19 04:22:13;;;;;;;12.00;6.32;;;;;;;4.66;100.00;102842.22;5033732;28;20033;-76
2023/05/19 04:24:38;;;;;;;13.20;6.80;;;;;;;4.70;100.00;102845.59;5033535;28;20371;-75
2023/05/19 04:27:04;;;;;;;30.45;8.25;;;;;;;4.72;100.00;102843.78;5033556;28;20033;-76
2023/05/19 04:29:31;;;;;;;12.70;5.72;;;;;;;4.73;100.00;102845.50;5033340;28;20029;-77
2023/05/19 04:31:56;;;;;;;18.42;7.38;;;;;;;4.74;100.00;102840.16;5032303;28;20418;-77
2023/05/19 04:34:22;;;;;;;13.63;6.55;;;;;;;4.75;100.00;102838.41;5033292;28;20076;-77
2023/05/19 04:36:47;;;;;;;12.60;6.35;;;;;;;4.80;100.00;102835.63;5033109;28;20030;-76
2023/05/19 04:39:13;;;;;;;20.27;8.65;;;;;;;4.86;100.00;102840.69;5033273;28;20068;-76
2023/05/19 04:41:39;;;;;;;25.17;7.43;;;;;;;4.91;100.00;102838.72;5031661;28;20537;-77
2023/05/19 04:44:07;;;;;;;19.13;6.50;;;;;;;5.02;100.00;102847.16;5032960;28;20423;-77
2023/05/19 04:46:33;;;;;;;16.13;6.50;;;;;;;5.13;100.00;102849.41;5032569;28;20037;-75
2023/05/19 04:49:00;;;;;;;17.92;7.30;;;;;;;5.22;100.00;102851.69;5032958;28;20029;-77
2023/05/19 04:51:27;;;;;;;17.65;6.72;;;;;;;5.30;100.00;102848.81;5032614;28;20470;-76
2023/05/19 04:53:54;;;;;;;17.73;8.20;;;;;;;5.38;100.00;102840.59;5033040;28;20029;-76
2023/05/19 04:56:19;;;;;;;15.38;6.82;;;;;;;5.44;100.00;102841.22;5033091;28;20033;-76
2023/05/19 04:58:44;;;;;;;17.55;7.15;;;;;;;5.54;100.00;102851.44;5032433;28;20363;-76
2023/05/19 05:01:12;;;;;;;18.85;7.88;;;;;;;5.60;100.00;102852.09;5032853;28;20063;-76
2023/05/19 05:03:38;;;;;;;13.80;6.95;;;;;;;5.66;100.00;102853.66;5032500;28;20037;-78
2023/05/19 05:06:03;;;;;;;16.30;7.95;;;;;;;5.73;100.00;102857.78;5032940;28;20029;-76
2023/05/19 05:08:29;;;;;;;14.23;6.90;;;;;;;5.80;100.00;102851.31;5032509;28;20040;-75
2023/05/19 05:10:54;;;;;;;17.52;7.35;;;;;;;5.90;100.00;102856.28;5032562;28;20061;-77
2023/05/19 05:13:22;;;;;;;13.05;6.78;;;;;;;5.97;100.00;102858.66;5032498;28;20649;-75
2023/05/19 05:15:48;;;;;;;20.70;7.40;;;;;;;6.14;100.00;102857.13;5032284;28;20485;-76
2023/05/19 05:18:14;;;;;;;18.92;7.22;;;;;;;6.25;100.00;102848.75;5032864;28;20045;-76
2023/05/19 05:20:41;;;;;;;15.20;7.80;;;;;;;6.40;100.00;102860.50;5032719;28;20487;-76
2023/05/19 05:23:08;;;;;;;16.23;7.75;;;;;;;6.49;100.00;102861.00;5032765;28;20032;-76
2023/05/19 05:25:34;;;;;;;13.77;6.70;;;;;;;6.58;100.00;102859.72;5032208;28;20528;-76
2023/05/19 05:28:03;;;;;;;15.70;6.88;;;;;;;6.69;100.00;102865.44;5032923;28;20031;-77
2023/05/19 05:30:29;;;;;;;14.90;6.47;;;;;;;6.78;100.00;102864.19;5032486;28;20116;-76
2023/05/19 05:32:55;;;;;;;13.63;6.22;;;;;;;6.86;100.00;102864.72;5032075;28;20083;-76
2023/05/19 05:35:22;;;;;;;16.40;7.18;;;;;;;6.96;100.00;102870.50;5032499;28;20392;-77
2023/05/19 05:37:48;;;;;;;19.08;6.55;;;;;;;7.06;100.00;102871.81;5031991;28;20029;-77
2023/05/19 05:40:14;;;;;;;17.35;6.72;;;;;;;7.16;100.00;102866.97;5032445;28;20498;-77
2023/05/19 05:42:39;;;;;;;15.07;6.80;;;;;;;7.28;100.00;102862.06;5047207;28;20033;-76
2023/05/19 05:45:05;;;;;;;17.23;7.05;;;;;;;7.38;100.00;102860.75;5032250;28;20029;-76
2023/05/19 05:47:31;;;;;;;16.73;7.10;;;;;;;7.49;100.00;102860.25;5032590;28;20500;-76
2023/05/19 05:49:57;;;;;;;19.38;6.68;;;;;;;7.63;100.00;102863.13;5031935;28;20038;-77
2023/05/19 05:52:28;;;;;;;17.42;6.57;;;;;;;7.80;100.00;102865.00;5032183;28;20424;-77
2023/05/19 05:54:53;;;;;;;14.93;6.57;;;;;;;7.99;100.00;102867.66;5032085;28;20193;-77
2023/05/19 05:57:19;;;;;;;13.13;6.03;;;;;;;8.15;100.00;102865.16;5032324;28;20030;-76
2023/05/19 05:59:45;;;;;;;18.83;6.43;;;;;;;8.32;100.00;102855.50;5032097;28;20029;-77
2023/05/19 06:02:11;;;;;;;13.20;5.85;;;;;;;8.50;100.00;102854.63;5032110;28;20044;-76
2023/05/19 06:04:36;;;;;;;11.60;5.50;;;;;;;8.74;100.00;102851.69;5032076;28;20037;-76
2023/05/19 06:07:02;;;;;;;14.00;5.82;;;;;;;8.95;100.00;102853.22;5032283;28;20034;-76
2023/05/19 06:09:29;;;;;;;21.90;6.28;;;;;;;9.21;100.00;102850.13;5032186;28;20032;-75
2023/05/19 06:11:55;;;;;;;15.93;6.00;;;;;;;9.46;100.00;102841.72;5030075;28;20156;-75
2023/05/19 06:14:20;;;;;;;13.48;6.15;;;;;;;9.67;100.00;102851.19;5031979;28;20037;-75
2023/05/19 06:16:47;;;;;;;12.70;5.80;;;;;;;9.80;100.00;102843.38;5047261;28;20068;-75
2023/05/19 06:19:13;;;;;;;10.20;5.53;;;;;;;9.93;100.00;102846.22;5032187;28;20037;-75
2023/05/19 06:21:38;;;;;;;14.93;6.47;;;;;;;10.06;100.00;102847.25;5031642;28;20030;-75
2023/05/19 06:24:03;;;;;;;15.25;6.45;;;;;;;10.23;100.00;102854.28;5032001;28;20034;-75
2023/05/19 06:26:29;;;;;;;15.13;6.13;;;;;;;10.33;100.00;102853.75;5031936;28;20045;-75
2023/05/19 06:28:54;;;;;;;16.77;6.03;;;;;;;10.44;100.00;102859.34;5030343;28;20029;-76
2023/05/19 06:31:20;;;;;;;11.38;5.72;;;;;;;10.56;100.00;102861.28;5031922;28;20033;-77
2023/05/19 06:33:45;;;;;;;12.25;5.28;;;;;;;10.66;100.00;102856.28;5031714;28;20042;-79
2023/05/19 06:36:12;;;;;;;12.52;6.07;;;;;;;10.69;100.00;102852.56;5031878;28;20060;-77
2023/05/19 06:38:37;;;;;;;9.50;5.22;;;;;;;10.74;100.00;102856.69;5031919;28;20041;-77
2023/05/19 06:41:03;;;;;;;12.45;5.38;;;;;;;10.83;100.00;102851.78;5030533;28;20033;-77
2023/05/19 06:43:29;;;;;;;12.30;5.50;;;;;;;11.04;100.00;102852.28;5031888;28;20044;-77
2023/05/19 06:45:54;;;;;;;14.10;5.90;;;;;;;11.22;100.00;102851.16;5031332;28;20030;-77
2023/05/19 06:48:20;;;;;;;10.52;5.10;;;;;;;11.26;100.00;102865.16;5031863;28;20042;-77
2023/05/19 06:50:45;;;;;;;15.02;5.50;;;;;;;11.39;100.00;102857.25;5031137;28;20447;-77
2023/05/19 06:53:10;;;;;;;13.40;5.55;;;;;;;11.57;100.00;102863.22;5046968;28;20088;-75
2023/05/19 06:55:36;;;;;;;14.07;6.25;;;;;;;11.70;100.00;102855.34;5031829;28;20080;-77
2023/05/19 06:58:01;;;;;;;16.45;5.32;;;;;;;11.88;100.00;102851.47;5031262;28;20136;-77
2023/05/19 07:00:26;;;;;;;15.38;5.10;;;;;;;11.95;100.00;102854.66;5031831;28;20500;-77
2023/05/19 07:02:52;;;;;;;11.90;5.53;;;;;;;12.03;100.00;102857.66;5031351;28;20034;-77
2023/05/19 07:05:17;;;;;;;10.32;5.32;;;;;;;12.15;100.00;102856.00;5034178;28;20057;-77
2023/05/19 07:07:43;;;;;;;16.63;5.50;;;;;;;12.27;100.00;102854.34;5034681;28;20112;-77
2023/05/19 07:10:08;;;;;;;14.52;5.30;;;;;;;12.32;100.00;102857.59;5035215;28;20075;-77
2023/05/19 07:12:34;;;;;;;12.77;5.03;;;;;;;12.48;100.00;102850.28;5035456;28;20088;-77
2023/05/19 07:14:59;;;;;;;15.95;5.22;;;;;;;12.56;100.00;102848.91;5034788;28;20036;-77
2023/05/19 07:17:24;;;;;;;11.68;5.53;;;;;;;12.71;100.00;102845.19;5034785;28;20029;-77
2023/05/19 07:19:50;;;;;;;15.85;6.22;;;;;;;12.79;100.00;102845.50;5034746;28;20044;-77
2023/05/19 07:22:16;;;;;;;14.18;5.38;;;;;;;12.78;100.00;102843.81;5034948;28;20116;-77
2023/05/19 07:24:41;;;;;;;10.38;4.93;;;;;;;12.83;100.00;102847.03;5034952;28;20091;-76
2023/05/19 07:27:06;;;;;;;15.38;5.18;;;;;;;12.91;100.00;102853.66;5034459;28;20029;-78
2023/05/19 07:29:32;;;;;;;10.05;4.95;;;;;;;12.96;100.00;102847.03;5034804;28;20041;-78
2023/05/19 07:31:57;;;;;;;12.45;5.50;;;;;;;13.09;100.00;102840.84;5034236;28;20065;-77
2023/05/19 07:34:23;;;;;;;15.60;5.47;;;;;;;13.29;100.00;102844.81;5034516;28;20405;-75
2023/05/19 07:36:50;;;;;;;18.00;5.57;;;;;;;13.31;100.00;102846.41;5034409;28;20068;-76
2023/05/19 07:39:15;;;;;;;12.60;4.90;;;;;;;13.46;100.00;102844.47;5034844;28;20076;-77
2023/05/19 07:41:41;;;;;;;9.68;4.60;;;;;;;13.57;100.00;102838.38;5034691;28;20059;-77
2023/05/19 07:44:06;;;;;;;12.15;5.00;;;;;;;13.57;100.00;102836.56;5034220;28;20037;-77
2023/05/19 07:46:36;;;;;;;10.82;4.75;;;;;;;13.66;100.00;102844.88;5034563;28;20056;-78
2023/05/19 07:49:02;;;;;;;12.30;5.15;;;;;;;13.73;100.00;102839.00;5034106;28;20061;-77
2023/05/19 07:51:27;;;;;;;10.45;4.45;;;;;;;13.87;100.00;102843.34;5034471;28;20480;-77
2023/05/19 07:53:52;;;;;;;11.38;4.68;;;;;;;14.01;100.00;102838.78;5034182;28;20424;-78
2023/05/19 07:56:18;;;;;;;15.50;5.20;;;;;;;14.13;100.00;102837.88;5034353;28;20040;-78
2023/05/19 07:58:43;;;;;;;15.45;4.55;;;;;;;14.10;100.00;102836.28;5034290;28;20035;-78
2023/05/19 08:01:09;;;;;;;21.05;4.70;;;;;;;14.22;100.00;102833.66;5033928;28;20067;-79
2023/05/19 08:03:34;;;;;;;11.93;4.30;;;;;;;14.28;100.00;102831.38;5034193;28;20029;-78
2023/05/19 08:05:59;;;;;;;13.40;4.78;;;;;;;14.20;100.00;102827.59;5033848;28;20067;-78
2023/05/19 08:08:25;;;;;;;13.35;4.57;;;;;;;14.22;100.00;102831.84;5033804;28;20088;-77
2023/05/19 08:10:51;;;;;;;13.32;5.13;;;;;;;14.45;100.00;102829.25;5033648;28;20041;-77
2023/05/19 08:13:16;;;;;;;9.07;4.25;;;;;;;14.39;100.00;102830.59;5034223;28;20429;-77
2023/05/19 08:15:42;;;;;;;10.13;4.65;;;;;;;14.53;100.00;102824.16;5032501;28;20034;-77
2023/05/19 08:18:07;;;;;;;13.88;4.25;;;;;;;14.63;100.00;102827.91;5033641;28;20056;-77
2023/05/19 08:20:33;;;;;;;12.23;4.18;;;;;;;14.88;100.00;102830.50;5033624;28;20038;-77
2023/05/19 08:22:58;;;;;;;15.65;5.45;;;;;;;14.84;100.00;102826.34;5033416;28;20026;-77
2023/05/19 08:25:24;;;;;;;11.85;4.20;;;;;;;14.87;100.00;102828.78;5033848;28;20040;-77
2023/05/19 08:27:49;;;;;;;10.90;3.63;;;;;;;14.94;100.00;102833.56;5033267;28;20030;-77
2023/05/19 08:30:14;;;;;;;10.95;4.07;;;;;;;15.19;100.00;102820.91;5032963;28;20151;-77
2023/05/19 08:32:40;;;;;;;10.57;3.85;;;;;;;15.46;100.00;102823.22;5033647;28;20038;-76
2023/05/19 08:35:06;;;;;;;11.57;3.92;;;;;;;15.68;97.54;102813.44;5032849;28;20033;-78
2023/05/19 08:37:31;;;;;;;13.25;3.78;;;;;;;16.10;98.06;102812.75;5033330;28;20132;-78
2023/05/19 08:39:57;;;;;;;13.82;3.92;;;;;;;16.61;93.49;102805.81;5033084;28;20036;-75
2023/05/19 08:42:22;;;;;;;8.15;3.83;;;;;;;16.91;82.61;102808.59;5033283;28;20121;-77
2023/05/19 08:44:48;;;;;;;11.02;4.05;;;;;;;17.16;82.29;102801.03;5033567;28;20527;-77
2023/05/19 08:47:14;;;;;;;11.32;3.85;;;;;;;17.32;70.85;102799.72;5032427;28;20240;-78
2023/05/19 08:49:44;;;;;;;9.52;3.53;;;;;;;17.60;73.99;102798.06;5032947;28;20112;-77
2023/05/19 08:52:26;;;;;;;11.43;4.00;;;;;;;18.07;72.67;102798.31;5032853;28;20068;-77
2023/05/19 08:54:59;;;;;;;6.13;2.60;;;;;;;18.21;59.23;102797.03;5033382;28;20033;-77
2023/05/19 08:57:26;;;;;;;7.32;2.97;;;;;;;18.35;62.41;102787.69;5033304;28;20033;-77
2023/05/19 08:59:54;;;;;;;14.13;3.38;;;;;;;18.72;59.51;102800.41;5032785;28;20033;-76
2023/05/19 09:02:21;;;;;;;12.15;3.58;;;;;;;18.97;60.30;102795.38;5032483;28;20064;-76
2023/05/19 09:04:47;;;;;;;13.63;3.17;;;;;;;19.40;57.12;102785.81;5033084;28;20033;-78
2023/05/19 09:07:13;;;;;;;9.70;3.00;;;;;;;19.61;57.73;102792.81;5032643;28;20033;-76
2023/05/19 09:09:42;;;;;;;6.47;2.83;;;;;;;19.51;51.99;102793.72;5032954;28;20089;-77
2023/05/19 09:12:08;;;;;;;7.25;3.13;;;;;;;20.06;52.57;102790.13;5032259;28;20490;-75
2023/05/19 09:14:34;;;;;;;9.38;2.72;;;;;;;20.69;53.19;102785.56;5032872;28;20091;-76
2023/05/19 09:17:00;;;;;;;9.10;3.08;;;;;;;20.90;48.99;102787.88;5031251;28;20034;-76
2023/05/19 09:19:27;;;;;;;6.13;2.60;;;;;;;21.53;50.84;102776.81;5033063;28;20029;-76
2023/05/19 09:22:02;;;;;;;7.47;2.53;;;;;;;21.26;47.16;102778.75;5032387;28;20052;-77
2023/05/19 09:24:27;;;;;;;10.10;2.95;;;;;;;21.47;48.65;102784.56;5032902;28;20476;-75
2023/05/19 09:26:55;;;;;;;9.90;2.72;;;;;;;21.76;45.92;102777.06;5031977;28;20057;-75
2023/05/19 09:29:21;;;;;;;7.07;2.65;;;;;;;21.61;43.77;102776.84;5032295;28;20143;-78
2023/05/19 09:32:00;;;;;;;9.20;2.80;;;;;;;21.93;44.96;102786.06;5032763;28;20529;-78
2023/05/19 09:34:26;;;;;;;8.20;2.55;;;;;;;22.14;45.16;102782.88;5032862;28;20112;-75
2023/05/19 09:36:52;;;;;;;5.43;2.60;;;;;;;22.19;43.96;102786.75;5032539;28;20065;-76
2023/05/19 09:39:22;;;;;;;9.55;2.80;;;;;;;21.93;42.16;102781.50;5031713;28;20373;-76
2023/05/19 09:41:57;;;;;;;9.38;2.42;;;;;;;22.18;41.59;102782.38;5032448;28;20036;-76
2023/05/19 09:44:27;;;;;;;10.10;2.35;;;;;;;22.15;42.19;102779.13;5032112;28;20021;-76
2023/05/19 09:46:53;;;;;;;8.93;2.35;;;;;;;22.37;42.92;102774.91;5032634;28;20532;-76
2023/05/19 09:49:28;;;;;;;5.38;2.30;;;;;;;21.71;41.18;102772.16;5032046;28;20033;-76
2023/05/19 09:51:55;;;;;;;5.78;2.20;;;;;;;21.98;42.64;102772.88;5032314;28;20029;-76
2023/05/19 09:54:22;;;;;;;10.30;2.55;;;;;;;22.12;43.11;102776.75;5031783;28;20064;-76
2023/05/19 09:56:58;;;;;;;4.03;2.00;;;;;;;21.92;43.81;102778.97;5032425;28;20032;-79
2023/05/19 09:59:25;;;;;;;7.88;2.35;;;;;;;21.71;42.76;102777.56;5032027;28;20093;-77
2023/05/19 10:01:55;;;;;;;5.40;2.20;;;;;;;21.57;41.36;102761.94;5032124;28;20048;-77
2023/05/19 10:04:22;;;;;;;8.57;2.53;;;;;;;21.27;41.78;102767.78;5031816;28;20033;-76
2023/05/19 10:06:54;;;;;;;7.55;2.35;;;;;;;20.87;43.14;102765.69;5032147;28;20052;-78
2023/05/19 10:09:25;;;;;;;10.45;2.28;;;;;;;20.82;41.31;102759.94;5031553;28;20573;-77
2023/05/19 10:11:55;;;;;;;5.60;2.43;;;;;;;21.07;43.47;102767.16;5032201;28;20056;-77
2023/05/19 10:14:25;;;;;;;7.43;3.78;;;;;;;21.02;40.95;102772.22;5031793;28;20121;-76
2023/05/19 10:16:52;;;;;;;9.13;2.75;;;;;;;20.91;44.16;102781.44;5032089;28;20057;-76
2023/05/19 10:19:23;;;;;;;10.18;2.75;;;;;;;20.49;43.35;102773.22;5031636;28;20118;-77
2023/05/19 10:21:49;;;;;;;6.53;2.28;;;;;;;20.26;46.55;102773.72;5032066;28;20049;-77
2023/05/19 10:24:15;;;;;;;7.40;2.28;;;;;;;21.25;41.55;102760.81;5031826;28;20045;-77
2023/05/19 10:26:44;;;;;;;7.57;2.47;;;;;;;22.31;38.46;102748.47;5032082;28;20037;-78
2023/05/19 10:29:11;;;;;;;11.38;2.55;;;;;;;23.40;38.81;102762.41;5031637;28;20041;-77
2023/05/19 10:31:39;;;;;;;7.47;2.15;;;;;;;24.28;35.52;102755.69;5031862;28;20056;-77
2023/05/19 10:34:22;;;;;;;9.57;2.20;;;;;;;25.13;36.69;102747.31;5032025;28;20038;-77
2023/05/19 10:37:08;;;;;;;7.28;2.33;;;;;;;25.44;37.12;102755.25;5047328;28;20040;-78
2023/05/19 10:39:35;;;;;;;7.45;2.47;;;;;;;25.29;35.61;102755.25;5035208;28;20033;-77
2023/05/19 10:42:18;;;;;;;7.63;2.45;;;;;;;25.07;34.16;102746.19;5035544;28;20552;-78
2023/05/19 10:45:20;;;;;;;7.38;2.65;;;;;;;25.54;35.18;102735.00;5035393;28;20366;-77
2023/05/19 10:47:45;;;;;;;9.23;2.53;;;;;;;26.07;32.85;102738.28;5034185;28;20068;-77
2023/05/19 10:50:11;;;;;;;6.20;2.40;;;;;;;26.19;31.42;102735.84;5035183;28;20408;-77
2023/05/19 10:52:38;;;;;;;6.57;2.33;;;;;;;26.31;33.52;102731.53;5035491;28;20417;-78
2023/05/19 10:55:07;;;;;;;7.95;2.80;;;;;;;26.43;30.89;102741.91;5035423;28;20034;-77
2023/05/19 10:57:32;;;;;;;5.95;2.10;;;;;;;26.19;31.10;102731.22;5034989;28;20033;-77
2023/05/19 11:00:09;;;;;;;7.95;2.92;;;;;;;26.28;34.24;102733.81;5035351;28;20483;-75
2023/05/19 11:02:40;;;;;;;5.25;2.50;;;;;;;26.18;33.58;102729.53;5035734;28;20029;-77
2023/05/19 11:05:08;;;;;;;7.95;2.60;;;;;;;26.19;32.04;102731.22;5035619;28;20465;-79
2023/05/19 11:07:33;;;;;;;6.90;2.58;;;;;;;25.68;33.85;102731.38;5035098;28;20029;-78
2023/05/19 11:10:05;;;;;;;9.05;2.88;;;;;;;25.37;35.01;102734.41;5035119;28;20030;-82
2023/05/19 11:12:40;;;;;;;9.05;2.72;;;;;;;25.46;31.50;102730.53;5034722;28;20053;-78
2023/05/19 11:15:08;;;;;;;12.50;2.50;;;;;;;25.74;33.45;102730.59;5035606;28;20499;-78
2023/05/19 11:17:34;;;;;;;9.27;3.00;;;;;;;26.26;33.70;102731.28;5035216;28;20116;-79
2023/05/19 11:20:00;;;;;;;6.22;2.60;;;;;;;26.54;32.14;102725.81;5035192;28;20370;-79
2023/05/19 11:22:26;;;;;;;7.63;2.60;;;;;;;25.19;33.45;102730.19;5034620;28;20045;-79
2023/05/19 11:24:55;;;;;;;9.15;2.70;;;;;;;23.93;35.29;102729.97;5035187;28;20509;-78
2023/05/19 11:27:32;;;;;;;7.45;2.47;;;;;;;23.00;38.09;102726.25;5034647;28;20499;-79